PH-0043 weather

SM Megamall Parking Building B Heliport
Mandaluyong, Philippines

Public forecast

Using degrees Celsius for public forecast. Weather courtesy of forecast.io.

Closest aviation weather report (METAR) to SM Megamall Parking Building B Heliport

Closest report is Ninoy Aquino International Airport, 4.9 nm (9.1 km) SSW. Retrieved 2020/04/02 04:00 UTC (57 minutes ago):

RPLL 020400Z 12012KT 070V210 9999 FEW025 33/23 Q1013 NOSIG RMK A2991

Closest aviation forecast (TAF) to SM Megamall Parking Building B Heliport

Closest forecast is Ninoy Aquino International Airport, 4.9 nm (9.1 km) SSW. Retrieved 2020-04-02 00:00 UTC (5 hours ago):

TAF RPLL 012300Z 0200/0306 11008KT 9999 FEW025 TX35/0206Z TN26/0222Z TEMPO 0200/0206 12014KT TEMPO 0206/0212 11017KT